Login

Franco58
1 activity; - Last training unit 29/06/2012
29/06/2012 Show to everybody Allenamento 29-06-12 alle 15:16 35.27 894 02:01:58 17.35 Km\h Meta 5.2
27/06/2012 Show to everybody Allenamento 27-06-12 alle 16:05 20.66 794 01:39:33 12.45 Km\h Meta 5.2
26/06/2012 Show to everybody Allenamento 26-06-12 alle 14:00 56.82 2097 04:37:50 12.27 Km\h Meta 5.2
24/06/2012 Show to everybody Allenamento 24-06-12 alle 08:29 48.84 1992 04:35:18 10.64 Km\h Meta 5.2
22/06/2012 Show to everybody Allenamento 22-06-12 alle 14:47 29.66 585 02:31:02 11.78 Km\h Meta 5.2
21/06/2012 Show to everybody Allenamento 21-06-12 alle 14:22 26.61 788 02:05:28 12.72 Km\h Meta 5.2
20/06/2012 Show to everybody Allenamento 20-06-12 alle 13:14 44.73 1248 03:29:40 12.8 Km\h Meta 5.2
19/06/2012 Show to everybody Allenamento 19-06-12 alle 14:26 15.01 568 01:28:27 10.18 Km\h Meta 5.2
18/06/2012 Show to everybody Allenamento 18-06-12 alle 13:41 47.24 1350 03:31:59 13.37 Km\h Meta 5.2
17/06/2012 Show to everybody Allenamento 17-06-12 alle 10:59 16.31 614 02:23:49 6.8 Km\h Meta 5.2
16/06/2012 Show to everybody Allenamento 16-06-12 alle 12:58 49.24 1319 03:33:14 13.85 Km\h Meta 5.2
15/06/2012 Show to everybody Allenamento 15-06-12 alle 13:36 44.83 1824 04:35:43 9.76 Km\h Meta 5.2
14/06/2012 Show to everybody Allenamento 14-06-12 alle 06:27 19.88 319 01:18:58 15.11 Km\h Meta 5.2
14/06/2012 Show to everybody Allenamento 14-06-12 alle 14:02 28.01 1094 02:21:26 11.88 Km\h Meta 5.2
14/06/2012 Show to everybody Allenamento 14-06-12 alle 12:07 21.27 232 01:08:40 18.59 Km\h Meta 5.2
07/06/2012 Show to everybody Allenamento 07-06-12 alle 14:49 30.66 2506 03:13:30 9.51 Km\h Meta 5.2
05/06/2012 Show to everybody Allenamento 05-06-12 alle 13:51 47.49 2934 04:00:25 11.85 Km\h Meta 5.2
03/06/2012 Show to everybody Allenamento 03-06-12 alle 09:51 50.91 1172 03:43:53 13.64 Km\h Meta 5.2
02/06/2012 Show to everybody Allenamento 02-06-12 alle 07:42 40.4 2483 04:32:18 8.9 Km\h Meta 5.2
01/06/2012 Show to everybody Allenamento 01-06-12 alle 13:54 35.7 2478 02:38:40 13.5 Km\h Meta 5.2
Training units 0
Kilometers 0 Km
Vertical gain 0 mt
Hours of riding 00:00:00
Average speed 0 Km/h
average HR 81
Points 20
Live Tracking »

Meta 5.2 59:31:51 709.53 Km
Stumpjumper FSR 29er 0 Km

 
If you stop following this users you will not be able to compare your trainings with his

Now you follow this users and you can compare your trainings


MTB-Forum.it | 2012-2019 Training Camp v.1.6 rev 05